KADM

Ardmore Municipal Airport

Ardmore, Oklahoma, USA
METAR KADM 181555Z 11006KT 10SM OVC065 16/10 A3045
Observed Flight Rules
Oct-18 @ 15:55 UTC (an hour ago) Visual Flight Rules
Wind Visibility Clouds
110° at 6 knots 10 miles
  • Overcast at 6,500' AGL
Temperatures Readings
Current 16°C / 61°F
Dewpoint 10°C / 50°F
Humidity 68%
Altimeter 30.45" Hg
Pressure 1031 hPa
Elevation 232
METAR KADM 181555Z 11006KT 10SM OVC065 16/10 A3045
Observed Flight Rules
Oct-18 @ 15:55 UTC
(an hour ago)
VFR
Wind Visibility
110° at 6 knots 10 miles
Clouds
  • Overcast at 6,500' AGL
Temperature Dewpoint
16°C / 61°F 10°C / 50°F
Humidity Altimeter Pressure
68% 30.45" Hg 1031 hPa